Time;durP1;ratioP1;P1;durP2;ratioP2;P2;SDS_P1;SDS_P2;PMS_P1;PMS_P2;Temp;Humidity;BMP_temperature;BMP_pressure;BME280_temperature;BME280_humidity;BME280_pressure;Samples;Min_cycle;Max_cycle;Signal;HPM_P1;HPM_P2
2022/02/01 00:03:03;;;;;;;35.98;11.35;;;;;;;-1.39;88.75;100057.25;1728562;81;98940;-71
2022/02/01 00:05:39;;;;;;;33.98;11.63;;;;;;;-1.33;88.71;100068.17;1731547;81;30608;-71
2022/02/01 00:08:23;;;;;;;34.95;11.63;;;;;;;-1.32;88.73;100063.35;1733793;81;99079;-71
2022/02/01 00:10:49;;;;;;;39.08;11.73;;;;;;;-1.32;88.68;100066.86;1734417;81;25780;-71
2022/02/01 00:13:19;;;;;;;28.85;10.50;;;;;;;-1.35;88.66;100061.61;1707851;82;27400;-71
2022/02/01 00:18:33;;;;;;;35.08;10.05;;;;;;;-1.40;88.63;100062.07;1708207;81;25854;-71
2022/02/01 00:36:39;;;;;;;41.40;12.15;;;;;;;-1.38;88.61;100085.72;1734412;81;25750;-72
2022/02/01 00:39:08;;;;;;;36.13;11.63;;;;;;;-1.39;88.64;100091.42;1708703;82;98874;-72
2022/02/01 00:41:35;;;;;;;34.45;10.80;;;;;;;-1.37;88.63;100100.61;1710062;82;25357;-72
2022/02/01 00:44:01;;;;;;;30.25;10.43;;;;;;;-1.37;88.64;100101.93;1709825;82;99075;-72
2022/02/01 00:46:28;;;;;;;34.45;11.48;;;;;;;-1.37;88.63;100101.48;1729657;81;25782;-72
2022/02/01 00:48:54;;;;;;;35.60;10.13;;;;;;;-1.38;88.62;100105.00;1736688;81;25825;-72
2022/02/01 00:51:21;;;;;;;33.28;11.40;;;;;;;-1.38;88.61;100102.81;1711485;82;98860;-72
2022/02/01 00:53:47;;;;;;;39.10;11.15;;;;;;;-1.39;88.59;100099.74;1714794;82;26814;-71
2022/02/01 00:56:16;;;;;;;35.52;11.65;;;;;;;-1.37;88.62;100096.67;1736951;81;99392;-72
2022/02/01 00:58:45;;;;;;;37.50;12.70;;;;;;;-1.41;88.57;100093.18;1732983;81;25798;-72
2022/02/01 01:01:14;;;;;;;39.55;11.22;;;;;;;-1.40;88.52;100105.44;1739781;81;25772;-72
2022/02/01 01:03:41;;;;;;;40.65;13.72;;;;;;;-1.41;88.53;100107.64;1732896;81;98743;-70
2022/02/01 01:06:07;;;;;;;44.63;12.82;;;;;;;-1.40;88.53;100112.02;1737535;81;25854;-71
2022/02/01 01:08:33;;;;;;;39.10;12.55;;;;;;;-1.48;88.49;100098.46;1737364;81;98874;-71
2022/02/01 01:10:59;;;;;;;39.35;13.05;;;;;;;-1.41;88.46;100101.50;1736050;81;26015;-72
2022/02/01 01:13:52;;;;;;;36.25;11.95;;;;;;;-1.41;88.46;100108.08;1731799;81;98896;-71
2022/02/01 01:16:06;;;;;;;33.78;12.65;;;;;;;-1.40;88.45;100117.70;1731375;81;27486;-71
2022/02/01 01:18:57;;;;;;;38.67;12.85;;;;;;;-1.39;88.45;100126.03;1737188;81;26258;-71
2022/02/01 01:45:53;;;;;;;31.55;10.43;;;;;;;-1.37;88.37;100140.05;1730431;81;98719;-72
2022/02/01 01:53:33;;;;;;;32.75;10.13;;;;;;;-1.35;88.35;100145.73;1727664;81;25740;-71
2022/02/01 01:55:58;;;;;;;38.40;10.43;;;;;;;-1.33;88.38;100146.60;1712780;82;99023;-71
2022/02/01 01:58:25;;;;;;;30.35;10.05;;;;;;;-1.32;88.35;100143.09;1714539;82;33397;-71
2022/02/01 02:01:09;;;;;;;26.12;8.40;;;;;;;-1.29;88.35;100146.59;1735166;81;26051;-71
2022/02/01 02:03:19;;;;;;;30.77;10.10;;;;;;;-1.25;88.35;100140.44;1729085;81;98552;-71
2022/02/01 02:05:45;;;;;;;29.80;9.68;;;;;;;-1.24;88.33;100137.80;1734105;81;25766;-71
2022/02/01 02:08:12;;;;;;;27.55;8.93;;;;;;;-1.22;88.35;100143.94;1736437;81;99030;-71
2022/02/01 02:10:48;;;;;;;28.90;9.38;;;;;;;-1.21;88.32;100142.18;1732513;81;25932;-71
2022/02/01 02:15:59;;;;;;;35.85;9.70;;;;;;;-1.17;88.30;100126.83;1733309;81;98601;-72
2022/02/01 02:18:29;;;;;;;17.02;7.45;;;;;;;-1.15;88.28;100127.69;1730752;81;26449;-72
2022/02/01 02:20:56;;;;;;;27.87;9.18;;;;;;;-1.16;88.25;100122.00;1724738;81;98791;-71
2022/02/01 02:23:24;;;;;;;22.52;8.43;;;;;;;-1.15;88.28;100109.28;1729998;81;25863;-71
2022/02/01 02:25:51;;;;;;;25.17;8.83;;;;;;;-1.14;88.26;100113.66;1712522;82;98978;-71
2022/02/01 02:28:19;;;;;;;25.00;9.05;;;;;;;-1.14;88.24;100120.23;1731041;81;25827;-71
2022/02/01 02:30:48;;;;;;;27.20;9.18;;;;;;;-1.13;88.28;100116.73;1730693;81;25768;-71
2022/02/01 02:33:17;;;;;;;31.85;9.78;;;;;;;-1.14;88.27;100118.48;1733110;80;98666;-72
2022/02/01 02:36:01;;;;;;;31.93;9.63;;;;;;;-1.16;88.20;100122.88;1735892;81;25817;-72
2022/02/01 02:38:34;;;;;;;28.62;9.88;;;;;;;-1.18;88.22;100131.21;1714681;81;98588;-72
2022/02/01 02:41:08;;;;;;;30.40;8.88;;;;;;;-1.20;88.24;100138.23;1729450;81;25982;-72
2022/02/01 02:46:09;;;;;;;26.95;8.98;;;;;;;-1.20;88.27;100138.23;1730179;81;98606;-73
2022/02/01 02:48:35;;;;;;;25.23;8.30;;;;;;;-1.20;88.28;100136.91;1734431;81;33353;-71
2022/02/01 02:51:01;;;;;;;26.80;11.20;;;;;;;-1.18;88.29;100129.89;1731416;81;98923;-72
2022/02/01 02:53:26;;;;;;;32.08;9.45;;;;;;;-1.19;88.29;100138.66;1731729;81;25773;-73
2022/02/01 02:55:52;;;;;;;38.20;10.90;;;;;;;-1.16;88.31;100141.28;1730362;81;98893;-72
2022/02/01 02:58:18;;;;;;;30.37;10.30;;;;;;;-1.17;88.31;100140.84;1732894;81;27563;-73
2022/02/01 03:00:44;;;;;;;28.47;10.70;;;;;;;-1.16;88.35;100139.97;1695721;81;33429;-72
2022/02/01 03:03:10;;;;;;;33.20;11.65;;;;;;;-1.14;88.36;100143.47;1707155;82;98899;-72
2022/02/01 03:05:36;;;;;;;40.88;11.80;;;;;;;-1.12;88.36;100150.03;1704468;82;25808;-73
2022/02/01 03:08:02;;;;;;;27.70;10.28;;;;;;;-1.14;88.29;100139.52;1708575;82;99001;-73
2022/02/01 03:10:28;;;;;;;35.83;11.65;;;;;;;-1.13;88.34;100145.21;1708023;82;27542;-71
2022/02/01 03:13:10;;;;;;;35.13;12.03;;;;;;;-1.12;88.37;100148.72;1706407;82;32956;-71
2022/02/01 03:20:34;;;;;;;33.55;11.48;;;;;;;-1.07;88.46;100145.19;1701199;82;98836;-71
2022/02/01 03:23:00;;;;;;;38.92;13.90;;;;;;;-1.06;88.45;100139.05;1704729;82;27469;-72
2022/02/01 03:25:28;;;;;;;45.73;14.07;;;;;;;-1.06;88.41;100142.12;1717612;82;32909;-73
2022/02/01 03:27:54;;;;;;;38.65;14.20;;;;;;;-1.05;88.47;100147.81;1711856;82;98940;-71
2022/02/01 03:30:22;;;;;;;44.83;14.35;;;;;;;-1.04;88.50;100135.97;1703419;82;25977;-72
2022/02/01 03:32:49;;;;;;;41.68;15.03;;;;;;;-1.03;88.51;100131.14;1709634;82;98839;-72
2022/02/01 03:35:15;;;;;;;46.80;13.95;;;;;;;-1.04;88.51;100129.39;1710824;82;27400;-72
2022/02/01 03:37:42;;;;;;;39.33;15.30;;;;;;;-1.01;88.54;100130.70;1715067;82;25857;-72
2022/02/01 03:40:15;;;;;;;45.55;16.55;;;;;;;-1.00;88.56;100119.73;1711633;82;98760;-72
2022/02/01 03:42:38;;;;;;;41.60;13.98;;;;;;;-1.00;88.55;100123.67;1707660;82;26147;-72
2022/02/01 03:45:04;;;;;;;57.20;14.98;;;;;;;-0.98;88.59;100124.55;1701945;82;98935;-72
2022/02/01 03:47:32;;;;;;;43.65;14.50;;;;;;;-0.97;88.59;100123.66;1712062;82;28283;-72
2022/02/01 03:50:01;;;;;;;35.80;13.80;;;;;;;-0.96;88.60;100120.59;1690474;83;99027;-72
2022/02/01 03:52:28;;;;;;;40.38;16.25;;;;;;;-0.97;88.64;100124.98;1687621;83;25740;-72
2022/02/01 03:54:54;;;;;;;45.08;15.25;;;;;;;-0.96;88.69;100120.15;1683587;83;26005;-72
2022/02/01 03:57:20;;;;;;;49.00;16.07;;;;;;;-0.94;88.67;100122.77;1683182;83;98097;-73
2022/02/01 03:59:46;;;;;;;46.55;16.52;;;;;;;-0.95;88.71;100117.95;1689845;82;27476;-72
2022/02/01 04:02:14;;;;;;;44.85;13.93;;;;;;;-0.93;88.72;100117.94;1725583;81;98981;-72
2022/02/01 04:04:48;;;;;;;49.15;15.80;;;;;;;-0.93;88.72;100121.89;1723562;82;25721;-72
2022/02/01 04:07:13;;;;;;;53.87;18.35;;;;;;;-0.95;88.71;100121.90;1745166;80;26339;-73
2022/02/01 04:09:39;;;;;;;44.38;15.20;;;;;;;-0.95;88.74;100122.34;1745901;80;98774;-72
2022/02/01 04:12:06;;;;;;;52.15;16.50;;;;;;;-0.95;88.76;100121.02;1749136;80;28204;-72
2022/02/01 04:14:35;;;;;;;52.83;16.70;;;;;;;-0.95;88.78;100122.34;1744918;80;98901;-72
2022/02/01 04:17:05;;;;;;;41.92;15.32;;;;;;;-0.96;88.83;100127.17;1748482;80;25799;-72
2022/02/01 04:19:33;;;;;;;50.73;16.80;;;;;;;-0.96;88.80;100132.42;1706809;82;26556;-72
2022/02/01 04:22:01;;;;;;;62.65;18.45;;;;;;;-0.96;88.84;100127.17;1745449;80;98797;-73
2022/02/01 04:24:36;;;;;;;51.92;16.50;;;;;;;-0.94;88.85;100126.72;1745767;80;27482;-73
2022/02/01 04:27:05;;;;;;;45.12;15.53;;;;;;;-0.94;88.89;100124.09;1750280;80;98822;-73
2022/02/01 04:29:31;;;;;;;50.70;16.97;;;;;;;-0.93;88.89;100126.71;1707313;82;25826;-73
2022/02/01 04:31:57;;;;;;;65.28;17.35;;;;;;;-0.92;88.93;100119.69;1750716;80;99053;-73
2022/02/01 04:34:23;;;;;;;40.33;15.60;;;;;;;-0.93;88.93;100112.24;1750394;81;25775;-73
2022/02/01 04:36:50;;;;;;;45.03;16.25;;;;;;;-0.91;88.94;100121.44;1751376;80;27389;-73
2022/02/01 04:39:17;;;;;;;59.33;16.42;;;;;;;-0.90;88.97;100122.75;1750312;80;98926;-72
2022/02/01 04:41:44;;;;;;;48.42;17.17;;;;;;;-0.89;89.04;100128.44;1747580;80;25809;-72
2022/02/01 04:44:10;;;;;;;52.80;16.55;;;;;;;-0.89;89.04;100126.25;1745775;80;99037;-71
2022/02/01 04:46:36;;;;;;;45.35;14.98;;;;;;;-0.89;89.06;100116.61;1751249;80;25721;-72
2022/02/01 04:49:08;;;;;;;42.62;15.43;;;;;;;-0.89;89.05;100115.29;1747316;80;27465;-73
2022/02/01 04:51:30;;;;;;;41.58;15.90;;;;;;;-0.89;89.04;100113.97;1742481;80;98786;-72
2022/02/01 04:53:57;;;;;;;53.70;17.87;;;;;;;-0.89;89.10;100121.86;1750019;80;25766;-73
2022/02/01 04:56:25;;;;;;;48.45;16.45;;;;;;;-0.90;89.12;100118.80;1746298;80;99053;-71
2022/02/01 04:58:51;;;;;;;55.92;17.20;;;;;;;-0.91;89.09;100120.12;1748733;80;25730;-71
2022/02/01 05:01:19;;;;;;;49.38;17.05;;;;;;;-0.90;89.13;100125.82;1752263;80;27371;-72
2022/02/01 05:03:44;;;;;;;46.08;16.37;;;;;;;-0.89;89.16;100119.67;1711516;82;99060;-72
2022/02/01 05:06:12;;;;;;;57.70;18.20;;;;;;;-0.89;89.22;100120.55;1747910;80;30393;-71
2022/02/01 05:08:40;;;;;;;57.90;16.17;;;;;;;-0.87;89.26;100102.13;1748869;80;98812;-72
2022/02/01 05:11:06;;;;;;;38.73;14.38;;;;;;;-0.87;89.28;100099.49;1749454;80;25832;-72
2022/02/01 05:16:07;;;;;;;48.00;16.05;;;;;;;-0.85;89.30;100091.16;1707964;82;98802;-71
2022/02/01 05:18:45;;;;;;;49.38;14.75;;;;;;;-0.83;89.33;100090.27;1725134;82;25909;-72
2022/02/01 05:21:13;;;;;;;44.30;14.07;;;;;;;-0.82;89.34;100085.88;1722137;81;98915;-72
2022/02/01 05:23:38;;;;;;;53.23;18.67;;;;;;;-0.81;89.32;100082.36;1728451;81;26145;-72
2022/02/01 05:26:04;;;;;;;46.18;15.35;;;;;;;-0.81;89.33;100082.36;1724196;81;98920;-72
2022/02/01 05:28:31;;;;;;;44.65;16.02;;;;;;;-0.79;89.35;100088.48;1725833;81;26194;-71
2022/02/01 05:31:02;;;;;;;55.40;16.48;;;;;;;-0.79;89.36;100089.80;1724855;82;25895;-72
2022/02/01 05:33:25;;;;;;;58.70;17.75;;;;;;;-0.79;89.37;100080.59;1746653;80;98874;-72
2022/02/01 05:35:51;;;;;;;54.67;17.55;;;;;;;-0.76;89.40;100075.31;1746915;80;25953;-71
2022/02/01 05:38:18;;;;;;;67.00;20.08;;;;;;;-0.74;89.40;100084.06;1749125;80;99035;-72
2022/02/01 05:40:44;;;;;;;69.22;16.75;;;;;;;-0.76;89.45;100071.36;1746203;80;25938;-72
2022/02/01 05:43:16;;;;;;;59.15;18.60;;;;;;;-0.70;89.50;100084.03;1741893;80;30510;-72
2022/02/01 05:45:43;;;;;;;59.83;16.65;;;;;;;-0.66;89.51;100090.15;1748748;80;98833;-72
2022/02/01 05:48:13;;;;;;;58.10;16.80;;;;;;;-0.63;89.51;100099.78;1749725;81;26499;-72
2022/02/01 05:50:40;;;;;;;46.23;17.52;;;;;;;-0.62;89.52;100103.72;1744457;80;98820;-72
2022/02/01 05:53:07;;;;;;;59.60;18.17;;;;;;;-0.60;89.51;100103.27;1742182;80;25801;-72
2022/02/01 05:55:34;;;;;;;49.63;16.32;;;;;;;-0.57;89.55;100102.38;1748138;80;26380;-72
2022/02/01 05:58:01;;;;;;;59.38;17.75;;;;;;;-0.57;89.56;100104.56;1749167;80;98779;-72
2022/02/01 06:00:27;;;;;;;51.28;16.45;;;;;;;-0.56;89.59;100110.26;1740822;80;25842;-73
2022/02/01 06:02:55;;;;;;;56.37;17.65;;;;;;;-0.54;89.64;100101.91;1703778;82;98812;-72
2022/02/01 06:05:21;;;;;;;52.05;17.98;;;;;;;-0.50;89.67;100113.29;1706918;82;26697;-72
2022/02/01 06:07:47;;;;;;;59.63;19.62;;;;;;;-0.50;89.69;100106.27;1680376;83;98972;-72
2022/02/01 06:10:13;;;;;;;62.15;19.50;;;;;;;-0.47;89.71;100108.88;1707738;82;25779;-72
2022/02/01 06:12:47;;;;;;;64.30;18.57;;;;;;;-0.46;89.72;100117.65;1706480;82;26418;-73
2022/02/01 06:15:16;;;;;;;72.58;21.57;;;;;;;-0.44;89.76;100111.48;1703667;82;98811;-73
2022/02/01 06:17:42;;;;;;;58.52;19.10;;;;;;;-0.42;89.82;100111.48;1675816;84;25803;-72
2022/02/01 06:20:12;;;;;;;63.40;21.10;;;;;;;-0.41;89.84;100115.41;1668686;84;99037;-73
2022/02/01 06:22:39;;;;;;;71.17;20.08;;;;;;;-0.43;89.83;100104.02;1648454;85;25924;-71
2022/02/01 06:25:08;;;;;;;60.85;18.15;;;;;;;-0.37;89.86;100117.14;1705212;82;25809;-72
2022/02/01 06:27:34;;;;;;;62.30;18.32;;;;;;;-0.37;89.87;100111.00;1678571;83;98880;-72
2022/02/01 06:30:01;;;;;;;66.57;18.12;;;;;;;-0.35;89.92;100110.55;1678064;83;26521;-73
2022/02/01 06:32:40;;;;;;;59.27;15.85;;;;;;;-0.32;89.94;100100.44;1675554;83;99199;-71
2022/02/01 06:35:09;;;;;;;59.05;18.70;;;;;;;-0.30;89.96;100117.09;1676863;83;25726;-72
2022/02/01 06:37:35;;;;;;;51.92;17.42;;;;;;;-0.28;89.99;100111.37;1679297;83;25880;-72
2022/02/01 06:40:04;;;;;;;61.77;16.15;;;;;;;-0.27;90.01;100105.22;1679877;83;98666;-72
2022/02/01 06:42:30;;;;;;;57.27;15.65;;;;;;;-0.27;90.01;100103.45;1679072;83;26062;-72
2022/02/01 06:44:58;;;;;;;64.07;16.45;;;;;;;-0.24;90.05;100109.14;1679152;83;98810;-72
2022/02/01 06:47:24;;;;;;;58.17;17.10;;;;;;;-0.24;90.05;100108.70;1681539;83;25723;-71
2022/02/01 06:49:49;;;;;;;50.83;15.68;;;;;;;-0.22;90.07;100109.56;1676842;83;99042;-71
2022/02/01 06:52:15;;;;;;;55.20;16.30;;;;;;;-0.20;90.09;100101.65;1679273;83;27339;-72
2022/02/01 06:54:44;;;;;;;56.60;16.23;;;;;;;-0.18;90.13;100098.56;1680250;83;32947;-71
2022/02/01 06:57:10;;;;;;;55.98;15.55;;;;;;;-0.15;90.13;100099.84;1706915;82;98797;-71
2022/02/01 06:59:36;;;;;;;51.68;16.65;;;;;;;-0.14;90.14;100112.13;1708390;82;26326;-71
2022/02/01 07:02:03;;;;;;;51.33;16.30;;;;;;;-0.13;90.15;100119.15;1712989;81;99112;-72
2022/02/01 07:04:29;;;;;;;51.75;16.20;;;;;;;-0.13;90.18;100126.61;1735885;81;27398;-71
2022/02/01 07:06:56;;;;;;;63.85;15.35;;;;;;;-0.13;90.18;100117.39;1730812;80;30982;-72
2022/02/01 07:09:22;;;;;;;59.70;17.42;;;;;;;-0.13;90.23;100119.15;1733922;81;98975;-73
2022/02/01 07:11:48;;;;;;;58.78;16.48;;;;;;;-0.12;90.24;100116.50;1727393;81;25965;-70
2022/02/01 07:14:14;;;;;;;42.50;15.15;;;;;;;-0.12;90.25;100109.91;1733724;81;99012;-70
2022/02/01 07:16:40;;;;;;;52.15;16.73;;;;;;;-0.09;90.30;100109.02;1732883;81;27408;-72
2022/02/01 07:19:06;;;;;;;45.05;16.35;;;;;;;-0.06;90.31;100110.30;1711688;82;25878;-73
2022/02/01 07:21:31;;;;;;;51.70;17.50;;;;;;;-0.03;90.30;100108.96;1754635;80;98838;-70
2022/02/01 07:24:00;;;;;;;44.18;15.43;;;;;;;-0.04;90.33;100104.13;1751018;80;26082;-70
2022/02/01 07:26:25;;;;;;;45.95;15.85;;;;;;;-0.04;90.57;100096.23;1753493;80;99251;-70
2022/02/01 07:28:51;;;;;;;50.65;14.78;;;;;;;-0.04;90.40;100094.91;1707540;82;27386;-70
2022/02/01 07:31:18;;;;;;;45.00;15.85;;;;;;;-0.02;90.42;100093.58;1706427;82;33390;-67
2022/02/01 07:33:44;;;;;;;41.35;14.00;;;;;;;0.00;90.45;100090.49;1714009;82;99242;-68
2022/02/01 07:36:15;;;;;;;46.10;16.27;;;;;;;0.00;90.43;100090.49;1712458;82;26394;-71
2022/02/01 07:38:38;;;;;;;41.58;17.25;;;;;;;-0.01;90.42;100086.98;1727741;81;99103;-69
2022/02/01 07:41:04;;;;;;;44.70;15.55;;;;;;;0.00;90.44;100089.17;1734186;81;27977;-70
2022/02/01 07:43:30;;;;;;;41.75;15.28;;;;;;;0.01;90.45;100076.40;1729321;81;33074;-70
2022/02/01 07:46:06;;;;;;;58.85;16.57;;;;;;;0.01;90.46;100072.44;1712875;82;99182;-70
2022/02/01 07:48:30;;;;;;;52.62;15.80;;;;;;;0.02;90.50;100073.31;1684340;83;25806;-70
2022/02/01 07:50:56;;;;;;;63.60;16.30;;;;;;;0.04;90.47;100068.47;1673955;84;98637;-72
2022/02/01 07:53:22;;;;;;;48.45;16.12;;;;;;;0.06;90.57;100069.77;1715765;81;27636;-71
2022/02/01 07:55:47;;;;;;;54.53;18.45;;;;;;;0.06;90.54;100054.83;1710620;82;98782;-71
2022/02/01 07:58:14;;;;;;;47.27;16.20;;;;;;;0.08;90.58;100053.49;1681591;84;30799;-71
2022/02/01 08:00:41;;;;;;;42.40;14.53;;;;;;;0.09;90.57;100050.84;1712019;82;26131;-72
2022/02/01 08:03:06;;;;;;;49.60;16.67;;;;;;;0.11;90.64;100062.24;1714153;82;98726;-71
2022/02/01 08:05:33;;;;;;;47.95;14.70;;;;;;;0.14;90.67;100052.98;1716377;82;27484;-72
2022/02/01 08:08:01;;;;;;;43.40;13.15;;;;;;;0.16;90.72;100054.29;1711333;82;98901;-71
2022/02/01 08:10:34;;;;;;;50.88;14.13;;;;;;;0.17;90.75;100058.67;1714140;82;26281;-71
2022/02/01 08:21:01;;;;;;;40.83;13.32;;;;;;;0.24;90.94;100052.00;1729935;81;98673;-73
2022/02/01 08:23:23;;;;;;;41.83;13.43;;;;;;;0.26;90.91;100050.22;1728363;81;25978;-71
2022/02/01 08:25:51;;;;;;;34.70;13.58;;;;;;;0.28;90.91;100047.56;1710042;82;106424;-72
2022/02/01 08:28:19;;;;;;;33.67;12.20;;;;;;;0.30;90.88;100051.93;1713132;82;25776;-71
2022/02/01 08:30:45;;;;;;;34.00;12.80;;;;;;;0.32;90.93;100054.55;1735520;81;28145;-71
2022/02/01 08:33:11;;;;;;;28.67;11.45;;;;;;;0.33;90.93;100049.27;1710895;82;99156;-70
2022/02/01 08:35:37;;;;;;;35.95;12.28;;;;;;;0.36;90.91;100046.16;1715975;82;25867;-71
2022/02/01 08:38:03;;;;;;;37.48;10.38;;;;;;;0.40;90.97;100045.23;1710758;82;98836;-71
2022/02/01 08:40:29;;;;;;;36.17;12.43;;;;;;;0.42;90.95;100042.13;1709587;82;25859;-70
2022/02/01 08:42:56;;;;;;;31.90;10.43;;;;;;;0.44;90.95;100046.94;1712266;82;27448;-70
2022/02/01 08:45:25;;;;;;;42.25;12.43;;;;;;;0.47;90.92;100041.19;1733236;81;98747;-72
2022/02/01 08:47:57;;;;;;;41.77;11.38;;;;;;;0.48;90.94;100042.06;1736010;81;25872;-72
2022/02/01 08:50:29;;;;;;;43.38;11.05;;;;;;;0.50;90.97;100038.96;1731668;81;98796;-71
2022/02/01 08:53:09;;;;;;;47.20;11.48;;;;;;;0.51;90.97;100044.66;1738195;81;25923;-71
2022/02/01 08:55:39;;;;;;;36.75;11.95;;;;;;;0.51;90.99;100034.11;1728362;81;27461;-71
2022/02/01 08:58:06;;;;;;;43.85;12.88;;;;;;;0.51;90.99;100034.11;1734461;81;98817;-71
2022/02/01 09:00:35;;;;;;;39.85;11.03;;;;;;;0.53;91.06;100032.33;1714188;82;25866;-71
2022/02/01 09:03:05;;;;;;;38.00;11.45;;;;;;;0.53;91.04;100039.80;1702616;82;98993;-71
2022/02/01 09:05:32;;;;;;;31.40;10.75;;;;;;;0.54;91.10;100032.76;1703127;82;27865;-72
2022/02/01 09:08:01;;;;;;;34.25;10.93;;;;;;;0.53;91.04;100034.52;1707972;82;98815;-72
2022/02/01 09:10:32;;;;;;;39.40;12.05;;;;;;;0.55;91.01;100022.64;1706344;82;26119;-72
2022/02/01 09:13:02;;;;;;;39.90;11.67;;;;;;;0.53;90.96;100020.47;1706770;82;25814;-71
2022/02/01 09:15:29;;;;;;;41.92;12.37;;;;;;;0.53;90.95;100020.02;1673453;83;98712;-71
2022/02/01 09:17:58;;;;;;;55.15;13.05;;;;;;;0.52;90.92;100009.49;1672407;83;25910;-71
2022/02/01 09:20:25;;;;;;;40.60;12.85;;;;;;;0.51;90.87;100014.34;1738746;80;98902;-71
2022/02/01 09:22:52;;;;;;;36.93;12.55;;;;;;;0.49;90.91;99998.98;1745170;80;26094;-71
2022/02/01 09:25:21;;;;;;;44.65;12.53;;;;;;;0.49;90.90;99997.66;1744123;80;25871;-72
2022/02/01 09:27:49;;;;;;;42.45;12.25;;;;;;;0.48;90.91;99992.84;1742099;80;98595;-72
2022/02/01 09:30:18;;;;;;;38.08;12.73;;;;;;;0.47;90.92;99993.73;1740840;80;25793;-73
2022/02/01 09:32:46;;;;;;;48.65;13.55;;;;;;;0.49;90.94;99989.76;1705336;82;98471;-72
2022/02/01 09:35:13;;;;;;;53.00;13.68;;;;;;;0.48;90.90;99984.06;1705594;82;25808;-71
2022/02/01 09:37:39;;;;;;;52.30;14.35;;;;;;;0.45;90.94;99985.42;1668937;83;25902;-71
2022/02/01 09:40:07;;;;;;;49.48;16.17;;;;;;;0.43;90.91;99985.87;1706597;82;98371;-72
2022/02/01 09:42:38;;;;;;;44.65;15.40;;;;;;;0.41;90.95;99982.39;1707730;82;25967;-72
2022/02/01 09:45:08;;;;;;;38.70;13.88;;;;;;;0.40;90.95;99980.65;1740451;80;98528;-72
2022/02/01 09:47:43;;;;;;;46.02;15.00;;;;;;;0.41;90.93;99988.98;1742571;80;25767;-72
2022/02/01 09:50:09;;;;;;;46.63;16.25;;;;;;;0.40;90.95;99974.93;1744922;80;98639;-73
2022/02/01 09:52:39;;;;;;;44.55;15.75;;;;;;;0.38;90.93;99978.48;1705361;82;26444;-73
2022/02/01 09:55:09;;;;;;;38.35;15.85;;;;;;;0.36;90.92;99982.90;1711687;82;25805;-73
2022/02/01 09:57:38;;;;;;;36.33;14.60;;;;;;;0.37;91.00;99987.28;1708765;80;98482;-71
2022/02/01 10:00:13;;;;;;;42.62;16.17;;;;;;;0.36;91.05;99982.90;1703923;82;26063;-73
2022/02/01 10:02:40;;;;;;;46.15;16.60;;;;;;;0.33;91.06;99983.36;1687556;81;98862;-74
2022/02/01 10:05:10;;;;;;;46.70;17.85;;;;;;;0.33;91.35;99989.95;1725637;81;25882;-73
2022/02/01 10:07:52;;;;;;;49.65;21.60;;;;;;;0.32;91.25;99989.97;1711193;81;25837;-73
2022/02/01 10:10:20;;;;;;;36.55;15.13;;;;;;;0.29;91.18;99989.56;1737379;80;98263;-73
2022/02/01 10:13:17;;;;;;;41.23;15.95;;;;;;;0.29;91.28;99979.47;1703145;82;26902;-72
2022/02/01 10:16:09;;;;;;;32.73;15.32;;;;;;;0.31;91.30;99978.55;1748040;80;98451;-74
2022/02/01 10:18:35;;;;;;;44.83;17.45;;;;;;;0.35;91.45;99975.88;1743261;80;25801;-72
2022/02/01 10:21:14;;;;;;;44.77;17.67;;;;;;;0.38;91.47;99958.27;1746408;80;98552;-73
2022/02/01 10:23:44;;;;;;;38.88;17.40;;;;;;;0.44;91.55;99957.31;1746550;80;27453;-72
2022/02/01 10:26:20;;;;;;;43.73;16.17;;;;;;;0.49;91.61;99960.76;1744041;80;98700;-75
2022/02/01 10:31:31;;;;;;;34.90;14.75;;;;;;;0.56;91.64;99961.09;1747118;80;25833;-73
2022/02/01 10:34:00;;;;;;;38.90;14.28;;;;;;;0.60;91.66;99953.57;1741708;80;98456;-73
2022/02/01 10:36:20;;;;;;;37.20;14.43;;;;;;;0.63;91.69;99950.44;1740969;80;27448;-74
2022/02/01 10:38:47;;;;;;;35.33;13.20;;;;;;;0.71;91.74;99944.19;1739258;80;98552;-73
2022/02/01 10:41:15;;;;;;;27.70;9.98;;;;;;;0.76;91.73;99927.40;1744554;80;25859;-74
2022/02/01 10:43:42;;;;;;;34.50;13.80;;;;;;;0.80;91.74;99911.95;1748319;80;25656;-73
2022/02/01 10:46:13;;;;;;;27.25;12.75;;;;;;;0.86;91.79;99903.94;1740151;80;98526;-73
2022/02/01 10:48:49;;;;;;;36.17;14.68;;;;;;;0.95;91.88;99905.11;1743386;80;28093;-74
2022/02/01 10:51:19;;;;;;;31.95;10.98;;;;;;;0.98;91.81;99893.19;1742322;80;98561;-73
2022/02/01 10:53:48;;;;;;;30.17;13.35;;;;;;;0.99;91.83;99891.42;1705633;82;25887;-74
2022/02/01 10:56:19;;;;;;;26.07;10.50;;;;;;;1.02;91.87;99880.81;1744856;80;98677;-74
2022/02/01 10:58:47;;;;;;;;;;;;;;;1.18;92.09;99876.14;1747955;80;25821;-74
2022/02/01 11:01:14;;;;;;;22.87;9.10;;;;;;;1.27;91.99;99872.89;1743052;80;27454;-74
2022/02/01 11:03:44;;;;;;;25.37;10.30;;;;;;;1.37;92.05;99874.92;1747147;80;98294;-74
2022/02/01 11:06:11;;;;;;;24.05;10.18;;;;;;;1.50;92.05;99864.55;1748917;80;25859;-73
2022/02/01 11:08:41;;;;;;;38.70;13.43;;;;;;;1.61;92.03;99861.25;1704501;82;98695;-72
2022/02/01 11:11:16;;;;;;;24.70;8.13;;;;;;;1.69;92.01;99854.95;1686789;83;25926;-72
2022/02/01 11:13:47;;;;;;;19.62;8.90;;;;;;;1.70;91.84;99865.93;1739195;80;27396;-72
2022/02/01 11:16:20;;;;;;;13.40;7.62;;;;;;;1.69;91.66;99872.11;1698049;82;98146;-72
2022/02/01 11:19:04;;;;;;;23.60;8.70;;;;;;;1.64;91.52;99862.95;1743769;80;25886;-73
2022/02/01 11:21:34;;;;;;;17.25;7.80;;;;;;;1.61;91.42;99857.73;1742799;80;98330;-70
2022/02/01 11:24:05;;;;;;;20.73;7.87;;;;;;;1.56;91.13;99852.54;1736175;81;26042;-72
2022/02/01 11:26:49;;;;;;;19.27;7.33;;;;;;;1.53;90.96;99860.98;1747828;80;98609;-72
2022/02/01 11:32:04;;;;;;;24.30;8.35;;;;;;;1.57;90.84;99843.72;1699315;80;98545;-74
2022/02/01 11:34:39;;;;;;;21.40;7.60;;;;;;;1.61;90.67;99854.64;1708282;82;26128;-72
2022/02/01 11:37:10;;;;;;;20.82;7.65;;;;;;;1.62;90.48;99844.50;1706045;82;25826;-72
2022/02/01 11:39:53;;;;;;;;;;;;;;;1.60;90.23;99846.75;1705939;82;98284;-72
2022/02/01 11:42:23;;;;;;;24.55;8.18;;;;;;;1.57;90.21;99855.61;1704987;82;26642;-73
2022/02/01 11:45:03;;;;;;;25.50;10.08;;;;;;;1.50;89.93;99850.02;1742173;80;98397;-73
2022/02/01 11:47:38;;;;;;;18.25;8.28;;;;;;;1.47;89.86;99846.12;1744029;80;27752;-73
2022/02/01 11:50:14;;;;;;;28.50;9.53;;;;;;;1.48;89.51;99862.38;1737611;80;98586;-73
2022/02/01 11:52:54;;;;;;;22.67;8.45;;;;;;;1.46;89.67;99847.02;1745689;80;27461;-72
2022/02/01 11:55:28;;;;;;;18.87;7.25;;;;;;;1.47;89.60;99846.12;1744945;80;25811;-74
2022/02/01 11:58:04;;;;;;;29.45;9.28;;;;;;;1.45;89.36;99850.56;1735627;80;98369;-76
2022/02/01 12:00:36;;;;;;;21.55;8.08;;;;;;;1.44;89.27;99832.98;1707526;82;25735;-74
2022/02/01 12:03:03;;;;;;;43.95;13.35;;;;;;;1.44;89.39;99818.91;1734403;80;98770;-76
2022/02/01 12:05:38;;;;;;;34.00;9.13;;;;;;;1.45;89.30;99810.95;1693762;82;27404;-75
2022/02/01 12:08:14;;;;;;;31.07;9.68;;;;;;;1.45;89.23;99808.76;1694221;82;98524;-74
2022/02/01 12:10:48;;;;;;;41.92;11.18;;;;;;;1.43;89.16;99803.51;1696134;82;25836;-74
2022/02/01 12:13:19;;;;;;;37.00;10.30;;;;;;;1.46;89.21;99798.17;1691664;82;26600;-75
2022/02/01 12:15:47;;;;;;;39.42;10.48;;;;;;;1.50;89.17;99795.89;1692113;82;99005;-73
2022/02/01 12:18:35;;;;;;;38.13;10.72;;;;;;;1.55;89.16;99787.87;1690453;82;27984;-72
2022/02/01 12:21:38;;;;;;;39.45;11.25;;;;;;;1.59;89.18;99785.13;1694533;82;98936;-73
2022/02/01 12:24:05;;;;;;;47.23;11.93;;;;;;;1.65;89.13;99777.98;1699199;82;25850;-72
2022/02/01 12:26:38;;;;;;;32.13;9.38;;;;;;;1.69;88.99;99767.77;1693713;82;99111;-73
2022/02/01 12:29:07;;;;;;;43.63;11.40;;;;;;;1.74;89.03;99761.48;1692149;83;26459;-72
2022/02/01 12:31:38;;;;;;;54.33;13.58;;;;;;;1.76;89.00;99753.53;1694812;82;27444;-75
2022/02/01 12:34:05;;;;;;;61.00;14.35;;;;;;;1.80;88.85;99757.39;1690550;82;98477;-75
2022/02/01 12:36:38;;;;;;;47.90;10.00;;;;;;;1.81;88.90;99749.88;1695276;82;26332;-75
2022/02/01 12:39:22;;;;;;;57.10;13.10;;;;;;;1.83;88.80;99743.24;1694785;82;98511;-75
2022/02/01 12:42:42;;;;;;;53.23;11.03;;;;;;;1.85;88.83;99748.91;1694239;82;25754;-76